sensor_id;sensor_type;location;lat;lon;timestamp;pressure;altitude;pressure_sealevel;temperature;humidity
48874;BME280;66155;46.204;5.220;2024-02-26T00:02:14;96647.84;;;7.43;82.85
48874;BME280;66155;46.204;5.220;2024-02-26T00:07:14;96630.81;;;7.44;82.64
48874;BME280;66155;46.204;5.220;2024-02-26T00:12:15;96645.91;;;7.49;82.46
48874;BME280;66155;46.204;5.220;2024-02-26T00:17:15;96651.06;;;7.56;82.02
48874;BME280;66155;46.204;5.220;2024-02-26T00:22:16;96669.84;;;7.58;82.09
48874;BME280;66155;46.204;5.220;2024-02-26T00:27:16;96666.88;;;7.61;81.79
48874;BME280;66155;46.204;5.220;2024-02-26T00:32:17;96687.47;;;7.66;81.38
48874;BME280;66155;46.204;5.220;2024-02-26T00:37:17;96678.41;;;7.60;81.59
48874;BME280;66155;46.204;5.220;2024-02-26T00:42:18;96672.38;;;7.61;82.17
48874;BME280;66155;46.204;5.220;2024-02-26T00:47:18;96602.28;;;7.62;82.33
48874;BME280;66155;46.204;5.220;2024-02-26T00:52:18;96630.44;;;7.52;82.48
48874;BME280;66155;46.204;5.220;2024-02-26T00:57:19;96642.03;;;7.56;82.49
48874;BME280;66155;46.204;5.220;2024-02-26T01:02:19;96639.28;;;7.56;81.93
48874;BME280;66155;46.204;5.220;2024-02-26T01:07:20;96623.69;;;7.53;82.52
48874;BME280;66155;46.204;5.220;2024-02-26T01:12:20;96609.44;;;7.54;82.19
48874;BME280;66155;46.204;5.220;2024-02-26T01:17:21;96632.44;;;7.51;81.96
48874;BME280;66155;46.204;5.220;2024-02-26T01:22:21;96634.53;;;7.56;81.86
48874;BME280;66155;46.204;5.220;2024-02-26T01:27:22;96630.66;;;7.48;82.16
48874;BME280;66155;46.204;5.220;2024-02-26T01:32:26;96631.47;;;7.54;82.13
48874;BME280;66155;46.204;5.220;2024-02-26T01:37:27;96638.84;;;7.63;81.55
48874;BME280;66155;46.204;5.220;2024-02-26T01:42:32;96640.09;;;7.62;81.13
48874;BME280;66155;46.204;5.220;2024-02-26T01:47:33;96622.59;;;7.65;81.42
48874;BME280;66155;46.204;5.220;2024-02-26T01:52:34;96635.22;;;7.71;81.09
48874;BME280;66155;46.204;5.220;2024-02-26T01:57:35;96622.00;;;7.75;80.66
48874;BME280;66155;46.204;5.220;2024-02-26T02:02:36;96583.13;;;7.73;80.46
48874;BME280;66155;46.204;5.220;2024-02-26T02:07:36;96609.31;;;7.83;80.05
48874;BME280;66155;46.204;5.220;2024-02-26T02:12:37;96617.63;;;7.89;79.36
48874;BME280;66155;46.204;5.220;2024-02-26T02:17:40;96604.91;;;7.91;79.07
48874;BME280;66155;46.204;5.220;2024-02-26T02:22:40;96590.91;;;7.95;78.83
48874;BME280;66155;46.204;5.220;2024-02-26T02:27:42;96589.19;;;7.97;78.35
48874;BME280;66155;46.204;5.220;2024-02-26T02:32:43;96589.69;;;7.96;78.53
48874;BME280;66155;46.204;5.220;2024-02-26T02:37:44;96590.44;;;7.96;77.94
48874;BME280;66155;46.204;5.220;2024-02-26T02:42:44;96609.53;;;8.00;78.07
48874;BME280;66155;46.204;5.220;2024-02-26T02:47:45;96597.75;;;8.00;77.62
48874;BME280;66155;46.204;5.220;2024-02-26T02:52:45;96596.00;;;8.02;77.66
48874;BME280;66155;46.204;5.220;2024-02-26T02:57:45;96601.81;;;8.04;77.38
48874;BME280;66155;46.204;5.220;2024-02-26T03:02:46;96606.06;;;8.05;76.89
48874;BME280;66155;46.204;5.220;2024-02-26T03:07:46;96593.31;;;8.08;76.82
48874;BME280;66155;46.204;5.220;2024-02-26T03:12:47;96601.38;;;8.11;76.48
48874;BME280;66155;46.204;5.220;2024-02-26T03:17:47;96606.13;;;8.11;76.78
48874;BME280;66155;46.204;5.220;2024-02-26T03:22:48;96597.66;;;8.14;76.78
48874;BME280;66155;46.204;5.220;2024-02-26T03:27:48;96591.66;;;8.16;76.26
48874;BME280;66155;46.204;5.220;2024-02-26T03:32:49;96583.53;;;8.07;76.24
48874;BME280;66155;46.204;5.220;2024-02-26T03:37:49;96583.06;;;8.08;76.29
48874;BME280;66155;46.204;5.220;2024-02-26T03:42:51;96594.09;;;8.08;76.01
48874;BME280;66155;46.204;5.220;2024-02-26T03:47:54;96584.28;;;8.07;75.53
48874;BME280;66155;46.204;5.220;2024-02-26T03:52:54;96593.88;;;8.12;75.87
48874;BME280;66155;46.204;5.220;2024-02-26T03:57:55;96591.59;;;8.10;75.30
48874;BME280;66155;46.204;5.220;2024-02-26T04:02:55;96589.88;;;8.13;74.88
48874;BME280;66155;46.204;5.220;2024-02-26T04:07:56;96572.91;;;8.20;74.57
48874;BME280;66155;46.204;5.220;2024-02-26T04:12:56;96574.19;;;8.24;74.03
48874;BME280;66155;46.204;5.220;2024-02-26T04:17:56;96571.03;;;8.31;74.29
48874;BME280;66155;46.204;5.220;2024-02-26T04:22:57;96565.53;;;8.31;74.05
48874;BME280;66155;46.204;5.220;2024-02-26T04:27:57;96569.28;;;8.34;74.40
48874;BME280;66155;46.204;5.220;2024-02-26T04:32:58;96550.75;;;8.34;73.66
48874;BME280;66155;46.204;5.220;2024-02-26T04:37:58;96551.25;;;8.33;73.70
48874;BME280;66155;46.204;5.220;2024-02-26T04:42:58;96559.56;;;8.38;73.51
48874;BME280;66155;46.204;5.220;2024-02-26T04:47:59;96563.84;;;8.39;73.75
48874;BME280;66155;46.204;5.220;2024-02-26T04:53:00;96562.88;;;8.42;73.51
48874;BME280;66155;46.204;5.220;2024-02-26T04:58:00;96546.84;;;8.47;72.88
48874;BME280;66155;46.204;5.220;2024-02-26T05:03:00;96542.41;;;8.55;73.00
48874;BME280;66155;46.204;5.220;2024-02-26T05:08:01;96555.66;;;8.51;72.55
48874;BME280;66155;46.204;5.220;2024-02-26T05:13:03;96549.69;;;8.58;72.62
48874;BME280;66155;46.204;5.220;2024-02-26T05:18:03;96543.16;;;8.55;71.95
48874;BME280;66155;46.204;5.220;2024-02-26T05:23:05;96542.47;;;8.60;71.93
48874;BME280;66155;46.204;5.220;2024-02-26T05:28:05;96544.25;;;8.63;71.82
48874;BME280;66155;46.204;5.220;2024-02-26T05:33:06;96557.06;;;8.66;71.81
48874;BME280;66155;46.204;5.220;2024-02-26T05:38:06;96547.81;;;8.69;71.43
48874;BME280;66155;46.204;5.220;2024-02-26T05:43:07;96560.63;;;8.72;71.39
48874;BME280;66155;46.204;5.220;2024-02-26T05:48:07;96553.09;;;8.73;70.81
48874;BME280;66155;46.204;5.220;2024-02-26T05:53:07;96547.59;;;8.73;70.79
48874;BME280;66155;46.204;5.220;2024-02-26T05:58:08;96552.88;;;8.76;70.27
48874;BME280;66155;46.204;5.220;2024-02-26T06:03:09;96550.13;;;8.76;70.25
48874;BME280;66155;46.204;5.220;2024-02-26T06:08:09;96553.38;;;8.75;70.00
48874;BME280;66155;46.204;5.220;2024-02-26T06:13:09;96537.31;;;8.73;70.35
48874;BME280;66155;46.204;5.220;2024-02-26T06:18:10;96548.06;;;8.71;69.99
48874;BME280;66155;46.204;5.220;2024-02-26T06:23:10;96552.34;;;8.72;69.98
48874;BME280;66155;46.204;5.220;2024-02-26T06:28:11;96554.88;;;8.76;69.45
48874;BME280;66155;46.204;5.220;2024-02-26T06:33:11;96570.00;;;8.86;69.57
48874;BME280;66155;46.204;5.220;2024-02-26T06:38:12;96576.78;;;8.85;69.82
48874;BME280;66155;46.204;5.220;2024-02-26T06:43:14;96566.75;;;8.87;69.45
48874;BME280;66155;46.204;5.220;2024-02-26T06:48:14;96566.75;;;8.87;69.34
48874;BME280;66155;46.204;5.220;2024-02-26T06:53:14;96565.00;;;8.90;69.55
48874;BME280;66155;46.204;5.220;2024-02-26T06:58:15;96574.81;;;8.91;69.12
48874;BME280;66155;46.204;5.220;2024-02-26T07:03:15;96573.88;;;9.00;68.83
48874;BME280;66155;46.204;5.220;2024-02-26T07:08:16;96578.94;;;9.07;68.48
48874;BME280;66155;46.204;5.220;2024-02-26T07:13:16;96583.75;;;9.12;68.51
48874;BME280;66155;46.204;5.220;2024-02-26T07:18:16;96595.81;;;9.14;68.42
48874;BME280;66155;46.204;5.220;2024-02-26T07:23:17;96593.34;;;9.16;68.19
48874;BME280;66155;46.204;5.220;2024-02-26T07:28:17;96604.16;;;9.20;68.25
48874;BME280;66155;46.204;5.220;2024-02-26T07:33:19;96627.09;;;9.31;68.40
48874;BME280;66155;46.204;5.220;2024-02-26T07:38:19;96613.31;;;9.37;68.52
48874;BME280;66155;46.204;5.220;2024-02-26T07:43:19;96611.56;;;9.40;67.18
48874;BME280;66155;46.204;5.220;2024-02-26T07:48:20;96607.84;;;9.48;67.85
48874;BME280;66155;46.204;5.220;2024-02-26T07:53:20;96625.97;;;9.55;67.15
48874;BME280;66155;46.204;5.220;2024-02-26T07:58:21;96610.44;;;9.63;67.33
48874;BME280;66155;46.204;5.220;2024-02-26T08:03:22;96626.53;;;9.64;67.49
48874;BME280;66155;46.204;5.220;2024-02-26T08:08:22;96627.53;;;9.67;67.36
48874;BME280;66155;46.204;5.220;2024-02-26T08:13:22;96612.00;;;9.69;67.80
48874;BME280;66155;46.204;5.220;2024-02-26T08:18:24;96626.88;;;9.77;67.44
48874;BME280;66155;46.204;5.220;2024-02-26T08:23:24;96637.69;;;9.81;67.29
48874;BME280;66155;46.204;5.220;2024-02-26T08:28:26;96635.75;;;9.93;66.61
48874;BME280;66155;46.204;5.220;2024-02-26T08:33:26;96644.34;;;10.06;66.46
48874;BME280;66155;46.204;5.220;2024-02-26T08:38:27;96647.69;;;10.21;66.37
48874;BME280;66155;46.204;5.220;2024-02-26T08:43:27;96643.22;;;10.40;66.56
48874;BME280;66155;46.204;5.220;2024-02-26T08:48:27;96654.34;;;10.46;65.44
48874;BME280;66155;46.204;5.220;2024-02-26T08:53:28;96649.34;;;10.66;65.52
48874;BME280;66155;46.204;5.220;2024-02-26T08:58:28;96660.41;;;10.61;65.12
48874;BME280;66155;46.204;5.220;2024-02-26T09:03:29;96663.69;;;10.59;64.97
48874;BME280;66155;46.204;5.220;2024-02-26T09:08:29;96664.41;;;10.60;64.94
48874;BME280;66155;46.204;5.220;2024-02-26T09:13:29;96690.09;;;10.60;65.48
48874;BME280;66155;46.204;5.220;2024-02-26T09:18:30;96680.00;;;10.46;65.28
48874;BME280;66155;46.204;5.220;2024-02-26T09:23:30;96680.50;;;10.50;65.59
48874;BME280;66155;46.204;5.220;2024-02-26T09:28:30;96687.81;;;10.53;66.04
48874;BME280;66155;46.204;5.220;2024-02-26T09:33:35;96675.75;;;10.51;65.08
48874;BME280;66155;46.204;5.220;2024-02-26T09:38:35;96684.81;;;10.57;65.41
48874;BME280;66155;46.204;5.220;2024-02-26T09:43:38;96695.16;;;10.62;64.46
48874;BME280;66155;46.204;5.220;2024-02-26T09:48:43;96693.44;;;10.75;64.52
48874;BME280;66155;46.204;5.220;2024-02-26T09:53:46;96695.72;;;10.94;64.28
48874;BME280;66155;46.204;5.220;2024-02-26T09:58:48;96712.38;;;11.10;63.93
48874;BME280;66155;46.204;5.220;2024-02-26T10:03:57;96701.31;;;11.38;63.18
48874;BME280;66155;46.204;5.220;2024-02-26T10:08:58;96706.59;;;11.64;62.75
48874;BME280;66155;46.204;5.220;2024-02-26T10:13:59;96712.41;;;11.77;61.46
48874;BME280;66155;46.204;5.220;2024-02-26T10:19:00;96712.66;;;11.79;61.71
48874;BME280;66155;46.204;5.220;2024-02-26T10:24:00;96699.56;;;11.80;59.59
48874;BME280;66155;46.204;5.220;2024-02-26T10:29:01;96711.66;;;11.88;58.98
48874;BME280;66155;46.204;5.220;2024-02-26T10:34:01;96706.56;;;11.97;59.14
48874;BME280;66155;46.204;5.220;2024-02-26T10:39:04;96723.22;;;12.08;59.57
48874;BME280;66155;46.204;5.220;2024-02-26T10:44:05;96722.19;;;12.11;58.26
48874;BME280;66155;46.204;5.220;2024-02-26T10:49:05;96728.44;;;12.29;59.47
48874;BME280;66155;46.204;5.220;2024-02-26T10:54:08;96748.88;;;12.37;59.17
48874;BME280;66155;46.204;5.220;2024-02-26T10:59:11;96748.81;;;12.48;59.52
48874;BME280;66155;46.204;5.220;2024-02-26T11:04:12;96744.97;;;12.62;59.57
48874;BME280;66155;46.204;5.220;2024-02-26T11:09:14;96735.44;;;12.52;59.63
48874;BME280;66155;46.204;5.220;2024-02-26T11:14:16;96730.63;;;12.52;59.24
48874;BME280;66155;46.204;5.220;2024-02-26T11:19:18;96728.06;;;12.66;59.66
48874;BME280;66155;46.204;5.220;2024-02-26T11:24:18;96725.16;;;12.88;59.01
48874;BME280;66155;46.204;5.220;2024-02-26T11:29:21;96729.19;;;12.92;57.94
48874;BME280;66155;46.204;5.220;2024-02-26T11:34:22;96721.09;;;12.94;58.34
48874;BME280;66155;46.204;5.220;2024-02-26T11:39:24;96714.56;;;12.86;58.07
48874;BME280;66155;46.204;5.220;2024-02-26T11:44:29;96713.56;;;12.89;57.91
48874;BME280;66155;46.204;5.220;2024-02-26T11:49:31;96720.78;;;13.03;58.59
48874;BME280;66155;46.204;5.220;2024-02-26T11:59:44;96715.19;;;13.15;55.30
48874;BME280;66155;46.204;5.220;2024-02-26T12:04:45;96697.41;;;13.29;56.47
48874;BME280;66155;46.204;5.220;2024-02-26T12:09:46;96703.59;;;13.46;55.04
48874;BME280;66155;46.204;5.220;2024-02-26T12:14:55;96699.78;;;13.49;54.34
48874;BME280;66155;46.204;5.220;2024-02-26T12:20:08;96716.50;;;13.73;54.79
48874;BME280;66155;46.204;5.220;2024-02-26T12:25:09;96708.22;;;13.68;53.11
48874;BME280;66155;46.204;5.220;2024-02-26T12:30:10;96694.25;;;13.73;52.51
48874;BME280;66155;46.204;5.220;2024-02-26T12:35:11;96699.13;;;13.91;53.88
48874;BME280;66155;46.204;5.220;2024-02-26T12:40:12;96692.84;;;14.15;53.45
48874;BME280;66155;46.204;5.220;2024-02-26T12:45:13;96679.47;;;14.08;50.98
48874;BME280;66155;46.204;5.220;2024-02-26T12:50:15;96690.69;;;14.02;51.65
48874;BME280;66155;46.204;5.220;2024-02-26T12:55:20;96677.16;;;14.12;50.85
48874;BME280;66155;46.204;5.220;2024-02-26T13:00:25;96700.47;;;14.09;51.91
48874;BME280;66155;46.204;5.220;2024-02-26T13:05:26;96692.84;;;14.15;49.33
48874;BME280;66155;46.204;5.220;2024-02-26T13:10:27;96689.16;;;14.26;51.21
48874;BME280;66155;46.204;5.220;2024-02-26T13:15:27;96699.94;;;14.59;52.17
48874;BME280;66155;46.204;5.220;2024-02-26T13:20:29;96696.19;;;14.94;47.41
48874;BME280;66155;46.204;5.220;2024-02-26T13:25:30;96698.72;;;15.29;50.40
48874;BME280;66155;46.204;5.220;2024-02-26T13:30:30;96709.41;;;15.25;46.76
48874;BME280;66155;46.204;5.220;2024-02-26T13:35:31;96691.81;;;14.99;43.74
48874;BME280;66155;46.204;5.220;2024-02-26T13:40:33;96688.97;;;15.04;46.81
48874;BME280;66155;46.204;5.220;2024-02-26T13:45:35;96701.97;;;15.65;47.79
48874;BME280;66155;46.204;5.220;2024-02-26T13:50:36;96690.34;;;15.93;45.28
48874;BME280;66155;46.204;5.220;2024-02-26T13:55:36;96688.84;;;16.31;47.44
48874;BME280;66155;46.204;5.220;2024-02-26T14:00:37;96700.34;;;16.54;42.56
48874;BME280;66155;46.204;5.220;2024-02-26T14:05:37;96700.03;;;16.71;44.41
48874;BME280;66155;46.204;5.220;2024-02-26T14:10:37;96695.41;;;16.73;41.92
48874;BME280;66155;46.204;5.220;2024-02-26T14:15:38;96698.94;;;17.21;43.53
48874;BME280;66155;46.204;5.220;2024-02-26T14:20:39;96696.75;;;17.82;44.98
48874;BME280;66155;46.204;5.220;2024-02-26T14:25:40;96694.41;;;17.93;41.97
48874;BME280;66155;46.204;5.220;2024-02-26T14:30:41;96702.59;;;17.50;41.70
48874;BME280;66155;46.204;5.220;2024-02-26T14:35:41;96707.13;;;17.74;42.09
48874;BME280;66155;46.204;5.220;2024-02-26T14:40:41;96700.56;;;17.92;39.55
48874;BME280;66155;46.204;5.220;2024-02-26T14:45:42;96708.41;;;18.14;41.78
48874;BME280;66155;46.204;5.220;2024-02-26T14:50:43;96710.72;;;18.51;40.99
48874;BME280;66155;46.204;5.220;2024-02-26T14:55:43;96697.97;;;18.79;41.44
48874;BME280;66155;46.204;5.220;2024-02-26T15:00:44;96694.38;;;19.14;36.55
48874;BME280;66155;46.204;5.220;2024-02-26T15:05:44;96686.69;;;19.07;40.91
48874;BME280;66155;46.204;5.220;2024-02-26T15:10:45;96694.56;;;19.08;39.55
48874;BME280;66155;46.204;5.220;2024-02-26T15:15:48;96703.91;;;18.68;36.70
48874;BME280;66155;46.204;5.220;2024-02-26T15:20:48;96698.59;;;18.56;39.03
48874;BME280;66155;46.204;5.220;2024-02-26T15:25:49;96698.28;;;19.03;39.42
48874;BME280;66155;46.204;5.220;2024-02-26T15:30:49;96698.28;;;19.03;38.20
48874;BME280;66155;46.204;5.220;2024-02-26T15:35:49;96706.28;;;18.92;38.81
48874;BME280;66155;46.204;5.220;2024-02-26T15:40:50;96704.75;;;17.98;36.95
48874;BME280;66155;46.204;5.220;2024-02-26T15:45:50;96711.50;;;18.03;36.46
48874;BME280;66155;46.204;5.220;2024-02-26T15:50:51;96710.78;;;17.48;37.75
48874;BME280;66155;46.204;5.220;2024-02-26T15:55:51;96708.81;;;17.56;37.01
48874;BME280;66155;46.204;5.220;2024-02-26T16:00:51;96723.25;;;17.60;36.57
48874;BME280;66155;46.204;5.220;2024-02-26T16:05:52;96724.97;;;17.63;36.98
48874;BME280;66155;46.204;5.220;2024-02-26T16:10:53;96730.25;;;17.19;37.47
48874;BME280;66155;46.204;5.220;2024-02-26T16:16:03;96741.31;;;16.78;38.79
48874;BME280;66155;46.204;5.220;2024-02-26T16:21:04;96744.56;;;16.69;39.09
48874;BME280;66155;46.204;5.220;2024-02-26T16:26:05;96756.25;;;16.67;38.67
48874;BME280;66155;46.204;5.220;2024-02-26T16:31:05;96756.06;;;16.65;38.84
48874;BME280;66155;46.204;5.220;2024-02-26T16:36:05;96773.34;;;16.64;38.88
48874;BME280;66155;46.204;5.220;2024-02-26T16:41:06;96776.06;;;16.69;38.78
48874;BME280;66155;46.204;5.220;2024-02-26T16:46:06;96793.84;;;16.40;39.39
48874;BME280;66155;46.204;5.220;2024-02-26T16:51:07;96798.66;;;16.26;39.64
48874;BME280;66155;46.204;5.220;2024-02-26T16:56:10;96810.22;;;16.04;40.28
48874;BME280;66155;46.204;5.220;2024-02-26T17:01:11;96816.75;;;15.75;40.68
48874;BME280;66155;46.204;5.220;2024-02-26T17:06:11;96829.66;;;15.22;41.82
48874;BME280;66155;46.204;5.220;2024-02-26T17:11:12;96837.25;;;14.78;42.67
48874;BME280;66155;46.204;5.220;2024-02-26T17:16:12;96857.91;;;14.64;42.62
48874;BME280;66155;46.204;5.220;2024-02-26T17:21:16;96862.91;;;14.47;43.63
48874;BME280;66155;46.204;5.220;2024-02-26T17:26:18;96869.59;;;14.33;43.17
48874;BME280;66155;46.204;5.220;2024-02-26T17:31:18;96884.59;;;14.24;43.82
48874;BME280;66155;46.204;5.220;2024-02-26T17:36:20;96892.06;;;14.11;44.39
48874;BME280;66155;46.204;5.220;2024-02-26T17:41:20;96910.91;;;13.93;44.58
48874;BME280;66155;46.204;5.220;2024-02-26T17:46:20;96907.94;;;13.80;44.51
48874;BME280;66155;46.204;5.220;2024-02-26T17:51:21;96928.75;;;13.68;44.95
48874;BME280;66155;46.204;5.220;2024-02-26T17:56:22;96941.19;;;13.56;45.08
48874;BME280;66155;46.204;5.220;2024-02-26T18:01:22;96947.03;;;13.47;45.20
48874;BME280;66155;46.204;5.220;2024-02-26T18:06:23;96955.97;;;13.34;45.69
48874;BME280;66155;46.204;5.220;2024-02-26T18:11:24;96964.31;;;13.29;45.67
48874;BME280;66155;46.204;5.220;2024-02-26T18:16:24;96971.41;;;13.19;46.05
48874;BME280;66155;46.204;5.220;2024-02-26T18:21:25;96975.97;;;13.16;45.74
48874;BME280;66155;46.204;5.220;2024-02-26T18:26:26;96989.88;;;13.11;45.88
48874;BME280;66155;46.204;5.220;2024-02-26T18:31:28;96998.47;;;13.01;45.96
48874;BME280;66155;46.204;5.220;2024-02-26T18:36:28;96998.22;;;12.94;45.97
48874;BME280;66155;46.204;5.220;2024-02-26T18:41:29;97008.31;;;12.91;46.05
48874;BME280;66155;46.204;5.220;2024-02-26T18:46:29;97012.63;;;12.87;46.34
48874;BME280;66155;46.204;5.220;2024-02-26T18:51:29;97013.41;;;12.82;46.41
48874;BME280;66155;46.204;5.220;2024-02-26T18:56:30;97011.09;;;12.75;46.12
48874;BME280;66155;46.204;5.220;2024-02-26T19:01:30;97021.97;;;12.73;46.30
48874;BME280;66155;46.204;5.220;2024-02-26T19:06:34;97017.66;;;12.66;46.84
48874;BME280;66155;46.204;5.220;2024-02-26T19:11:35;97025.75;;;12.58;46.83
48874;BME280;66155;46.204;5.220;2024-02-26T19:16:36;97035.59;;;12.48;46.66
48874;BME280;66155;46.204;5.220;2024-02-26T19:21:36;97041.91;;;12.43;47.12
48874;BME280;66155;46.204;5.220;2024-02-26T19:26:39;97045.94;;;12.37;47.30
48874;BME280;66155;46.204;5.220;2024-02-26T19:31:40;97059.28;;;12.27;47.43
48874;BME280;66155;46.204;5.220;2024-02-26T19:36:40;97061.53;;;12.23;47.63
48874;BME280;66155;46.204;5.220;2024-02-26T19:41:41;97072.13;;;12.19;47.33
48874;BME280;66155;46.204;5.220;2024-02-26T19:46:41;97083.72;;;12.12;47.53
48874;BME280;66155;46.204;5.220;2024-02-26T19:51:42;97074.34;;;12.04;47.56
48874;BME280;66155;46.204;5.220;2024-02-26T19:56:43;97097.75;;;11.92;48.65
48874;BME280;66155;46.204;5.220;2024-02-26T20:01:45;97116.13;;;11.84;48.58
48874;BME280;66155;46.204;5.220;2024-02-26T20:06:46;97126.69;;;11.80;48.53
48874;BME280;66155;46.204;5.220;2024-02-26T20:11:48;97136.50;;;11.75;48.62
48874;BME280;66155;46.204;5.220;2024-02-26T20:16:48;97145.06;;;11.72;48.59
48874;BME280;66155;46.204;5.220;2024-02-26T20:21:48;97163.16;;;11.67;48.80
48874;BME280;66155;46.204;5.220;2024-02-26T20:26:49;97174.97;;;11.62;48.73
48874;BME280;66155;46.204;5.220;2024-02-26T20:31:49;97180.03;;;11.63;49.13
48874;BME280;66155;46.204;5.220;2024-02-26T20:36:50;97183.28;;;11.62;49.15
48874;BME280;66155;46.204;5.220;2024-02-26T20:41:50;97190.59;;;11.59;48.81
48874;BME280;66155;46.204;5.220;2024-02-26T20:46:51;97212.00;;;11.59;49.14
48874;BME280;66155;46.204;5.220;2024-02-26T20:51:59;97219.03;;;11.54;49.54
48874;BME280;66155;46.204;5.220;2024-02-26T20:57:00;97221.97;;;11.45;49.74
48874;BME280;66155;46.204;5.220;2024-02-26T21:02:02;97231.03;;;11.40;49.52
48874;BME280;66155;46.204;5.220;2024-02-26T21:07:03;97226.03;;;11.44;49.69
48874;BME280;66155;46.204;5.220;2024-02-26T21:12:05;97229.03;;;11.46;49.50
48874;BME280;66155;46.204;5.220;2024-02-26T21:17:05;97242.16;;;11.46;49.49
48874;BME280;66155;46.204;5.220;2024-02-26T21:22:06;97253.47;;;11.42;49.46
48874;BME280;66155;46.204;5.220;2024-02-26T21:27:06;97254.44;;;11.39;49.69
48874;BME280;66155;46.204;5.220;2024-02-26T21:32:07;97251.63;;;11.34;49.94
48874;BME280;66155;46.204;5.220;2024-02-26T21:37:07;97256.13;;;11.31;50.30
48874;BME280;66155;46.204;5.220;2024-02-26T21:42:08;97265.44;;;11.28;50.27
48874;BME280;66155;46.204;5.220;2024-02-26T21:47:08;97275.22;;;11.23;50.21
48874;BME280;66155;46.204;5.220;2024-02-26T21:52:12;97286.31;;;11.23;50.42
48874;BME280;66155;46.204;5.220;2024-02-26T21:57:12;97292.25;;;11.16;50.78
48874;BME280;66155;46.204;5.220;2024-02-26T22:02:13;97301.50;;;11.08;50.58
48874;BME280;66155;46.204;5.220;2024-02-26T22:07:13;97303.72;;;11.04;50.79
48874;BME280;66155;46.204;5.220;2024-02-26T22:12:14;97296.38;;;11.01;51.06
48874;BME280;66155;46.204;5.220;2024-02-26T22:17:14;97292.28;;;10.96;51.17
48874;BME280;66155;46.204;5.220;2024-02-26T22:22:14;97311.19;;;10.98;51.33
48874;BME280;66155;46.204;5.220;2024-02-26T22:27:15;97299.34;;;10.97;51.12
48874;BME280;66155;46.204;5.220;2024-02-26T22:32:15;97307.63;;;10.92;50.99
48874;BME280;66155;46.204;5.220;2024-02-26T22:37:16;97325.41;;;10.85;51.27
48874;BME280;66155;46.204;5.220;2024-02-26T22:42:16;97329.84;;;10.77;51.27
48874;BME280;66155;46.204;5.220;2024-02-26T22:47:17;97340.91;;;10.77;51.64
48874;BME280;66155;46.204;5.220;2024-02-26T22:52:17;97335.78;;;10.70;51.36
48874;BME280;66155;46.204;5.220;2024-02-26T22:57:18;97337.56;;;10.53;52.08
48874;BME280;66155;46.204;5.220;2024-02-26T23:02:18;97352.81;;;10.28;52.25
48874;BME280;66155;46.204;5.220;2024-02-26T23:07:18;97353.78;;;10.10;52.38
48874;BME280;66155;46.204;5.220;2024-02-26T23:12:19;97356.56;;;10.10;52.34
48874;BME280;66155;46.204;5.220;2024-02-26T23:17:19;97352.47;;;10.06;52.47
48874;BME280;66155;46.204;5.220;2024-02-26T23:22:20;97356.00;;;10.06;52.50
48874;BME280;66155;46.204;5.220;2024-02-26T23:27:20;97362.75;;;10.05;52.65
48874;BME280;66155;46.204;5.220;2024-02-26T23:32:21;97370.28;;;10.05;52.54
48874;BME280;66155;46.204;5.220;2024-02-26T23:37:21;97377.81;;;10.04;53.01
48874;BME280;66155;46.204;5.220;2024-02-26T23:42:21;97378.22;;;9.97;52.90
48874;BME280;66155;46.204;5.220;2024-02-26T23:47:22;97381.44;;;9.96;53.07
48874;BME280;66155;46.204;5.220;2024-02-26T23:52:23;97377.66;;;9.93;53.39
48874;BME280;66155;46.204;5.220;2024-02-26T23:57:23;97376.59;;;9.91;53.21
